Time;durP1;ratioP1;P1;durP2;ratioP2;P2;SDS_P1;SDS_P2;PMS_P1;PMS_P2;Temp;Humidity;BMP_temperature;BMP_pressure;BME280_temperature;BME280_humidity;BME280_pressure;Samples;Min_cycle;Max_cycle;Signal;HPM_P1;HPM_P2
2023/05/17 00:01:36;;;;;;;7.63;1.45;;;16.20;99.90;;;;;;5084554;28;20210;-86
2023/05/17 00:04:09;;;;;;;6.72;1.30;;;16.30;99.90;;;;;;5095382;28;20199;-87
2023/05/17 00:06:40;;;;;;;8.68;1.50;;;16.30;99.90;;;;;;5092697;28;20202;-86
2023/05/17 00:09:11;;;;;;;7.53;1.40;;;16.30;99.90;;;;;;5090249;28;20191;-86
2023/05/17 00:11:44;;;;;;;6.07;1.38;;;16.30;99.90;;;;;;5083500;28;20203;-86
2023/05/17 00:14:15;;;;;;;6.07;1.45;;;16.30;99.90;;;;;;5087840;28;20196;-86
2023/05/17 00:16:46;;;;;;;10.45;1.48;;;16.40;99.90;;;;;;5084557;28;20208;-85
2023/05/17 00:19:19;;;;;;;5.45;1.30;;;16.40;99.90;;;;;;5087007;28;20210;-86
2023/05/17 00:21:50;;;;;;;10.80;1.38;;;16.40;99.90;;;;;;5086871;28;20237;-87
2023/05/17 00:24:21;;;;;;;4.47;1.25;;;16.30;99.90;;;;;;5086222;28;20305;-87
2023/05/17 00:26:52;;;;;;;5.45;1.48;;;16.30;99.90;;;;;;5090124;28;20210;-87
2023/05/17 00:29:23;;;;;;;6.53;1.35;;;16.30;99.90;;;;;;5094206;28;20191;-87
2023/05/17 00:31:55;;;;;;;5.03;1.50;;;16.40;99.90;;;;;;5087708;28;20558;-86
2023/05/17 00:34:29;;;;;;;8.25;1.25;;;16.60;99.90;;;;;;5093209;28;20187;-87
2023/05/17 00:37:00;;;;;;;7.47;1.23;;;16.70;99.90;;;;;;5094200;28;20592;-86
2023/05/17 00:39:31;;;;;;;6.60;1.15;;;16.70;99.90;;;;;;5087512;28;20238;-86
2023/05/17 00:42:03;;;;;;;4.82;1.23;;;16.60;99.90;;;;;;5093789;28;20187;-87
2023/05/17 00:44:34;;;;;;;5.28;1.38;;;16.60;99.90;;;;;;5094190;28;20194;-87
2023/05/17 00:47:05;;;;;;;4.65;1.10;;;16.60;99.90;;;;;;5091670;28;20195;-85
2023/05/17 00:49:39;;;;;;;4.15;1.05;;;16.70;99.90;;;;;;5078492;28;20230;-85
2023/05/17 00:52:10;;;;;;;6.05;1.17;;;16.80;99.90;;;;;;5086198;28;20195;-85
2023/05/17 00:54:42;;;;;;;5.18;1.13;;;16.70;99.90;;;;;;5093341;28;20194;-86
2023/05/17 00:57:14;;;;;;;6.13;1.55;;;16.70;99.90;;;;;;5090967;28;20223;-85
2023/05/17 00:59:46;;;;;;;10.43;1.83;;;16.80;99.90;;;;;;5089262;28;20602;-85
2023/05/17 01:02:17;;;;;;;7.53;1.90;;;16.80;99.90;;;;;;5088887;28;20196;-86
2023/05/17 01:04:51;;;;;;;8.75;1.92;;;16.90;99.90;;;;;;5091337;28;20669;-85
2023/05/17 01:07:22;;;;;;;6.88;1.40;;;16.90;99.90;;;;;;5091768;28;20213;-87
2023/05/17 01:09:53;;;;;;;7.00;1.73;;;17.00;99.90;;;;;;5088389;28;20199;-86
2023/05/17 01:12:34;;;;;;;6.65;1.52;;;17.00;99.90;;;;;;5078340;28;20187;-87
2023/05/17 01:15:16;;;;;;;5.80;1.40;;;17.00;99.90;;;;;;5091432;28;20195;-86
2023/05/17 01:17:58;;;;;;;8.02;1.70;;;16.90;99.90;;;;;;5091787;28;20200;-86
2023/05/17 01:20:36;;;;;;;6.03;1.15;;;16.90;99.90;;;;;;5093099;28;20207;-86
2023/05/17 01:23:29;;;;;;;5.13;1.17;;;16.90;99.90;;;;;;5093334;28;20658;-86
2023/05/17 01:26:09;;;;;;;7.18;1.27;;;17.10;99.90;;;;;;5086971;28;20199;-86
2023/05/17 01:28:44;;;;;;;4.60;1.15;;;17.10;99.90;;;;;;5091897;28;20654;-87
2023/05/17 01:31:16;;;;;;;4.60;0.88;;;17.20;99.90;;;;;;5091653;28;20226;-85
2023/05/17 01:33:48;;;;;;;3.95;1.20;;;17.30;99.90;;;;;;5090534;28;20187;-85
2023/05/17 01:36:19;;;;;;;5.05;1.10;;;17.40;99.90;;;;;;5090255;28;20227;-86
2023/05/17 01:38:50;;;;;;;5.15;1.20;;;17.40;99.90;;;;;;5091111;28;20302;-87
2023/05/17 01:41:28;;;;;;;5.30;1.10;;;17.40;99.90;;;;;;5088587;28;20273;-86
2023/05/17 01:44:07;;;;;;;2.70;0.95;;;17.50;99.90;;;;;;5071999;28;20983;-86
2023/05/17 01:46:42;;;;;;;4.18;1.00;;;17.60;99.90;;;;;;5089765;28;20195;-85
2023/05/17 01:49:18;;;;;;;3.22;0.90;;;17.70;99.90;;;;;;5092917;28;20183;-85
2023/05/17 01:51:59;;;;;;;4.60;1.10;;;17.70;99.90;;;;;;5090869;28;20190;-86
2023/05/17 01:54:36;;;;;;;6.55;1.30;;;17.80;99.90;;;;;;5092629;28;20191;-86
2023/05/17 01:57:12;;;;;;;5.07;1.20;;;17.90;99.90;;;;;;5092678;28;20709;-85
2023/05/17 01:59:47;;;;;;;3.85;0.98;;;18.00;99.90;;;;;;5090247;28;20197;-85
2023/05/17 02:02:21;;;;;;;7.85;1.67;;;18.00;99.90;;;;;;5088860;28;20195;-86
2023/05/17 02:04:52;;;;;;;5.70;1.60;;;17.90;99.90;;;;;;5091598;28;20678;-87
2023/05/17 02:07:23;;;;;;;4.40;1.15;;;17.90;99.90;;;;;;5091579;28;20738;-87
2023/05/17 02:09:54;;;;;;;8.32;1.65;;;18.10;99.90;;;;;;5090217;28;20194;-86
2023/05/17 02:12:26;;;;;;;16.90;2.25;;;18.10;99.90;;;;;;5092374;28;20206;-85
2023/05/17 02:14:59;;;;;;;9.02;1.13;;;18.00;99.90;;;;;;5090090;28;20191;-85
2023/05/17 02:17:30;;;;;;;6.43;1.35;;;17.90;99.90;;;;;;5090065;28;20223;-87
2023/05/17 02:20:04;;;;;;;3.97;1.35;;;18.00;99.90;;;;;;5089167;28;20204;-87
2023/05/17 02:22:35;;;;;;;5.40;1.20;;;18.00;99.90;;;;;;5090055;28;20706;-86
2023/05/17 02:25:07;;;;;;;5.45;1.25;;;18.20;99.90;;;;;;5093127;28;20638;-86
2023/05/17 02:27:55;;;;;;;5.45;1.35;;;18.20;99.90;;;;;;5130791;27;20697;-86
2023/05/17 02:30:27;;;;;;;7.30;1.35;;;18.30;99.90;;;;;;5104685;28;20194;-85
2023/05/17 02:32:58;;;;;;;4.75;1.42;;;18.30;99.90;;;;;;5105512;28;20557;-87
2023/05/17 02:35:29;;;;;;;9.18;1.55;;;18.40;99.90;;;;;;5088447;28;20206;-86
2023/05/17 02:38:00;;;;;;;5.70;1.33;;;18.40;99.90;;;;;;5108922;28;20666;-85
2023/05/17 02:40:31;;;;;;;8.90;1.58;;;18.40;99.90;;;;;;5109578;28;20191;-85
2023/05/17 02:43:12;;;;;;;5.32;1.35;;;18.20;99.90;;;;;;5093430;28;20670;-88
2023/05/17 02:45:45;;;;;;;6.78;1.38;;;18.30;99.90;;;;;;5096993;28;20217;-84
2023/05/17 02:48:16;;;;;;;7.35;1.52;;;18.20;99.90;;;;;;5091024;28;20201;-83
2023/05/17 02:50:47;;;;;;;4.65;1.40;;;18.10;99.90;;;;;;5090942;28;20199;-85
2023/05/17 02:53:20;;;;;;;7.63;1.20;;;18.00;99.90;;;;;;5101339;28;20221;-85
2023/05/17 02:55:51;;;;;;;4.20;1.13;;;17.90;99.90;;;;;;5107596;28;20197;-85
2023/05/17 02:58:24;;;;;;;3.58;1.30;;;18.00;99.90;;;;;;5089156;28;20187;-86
2023/05/17 03:00:55;;;;;;;4.15;0.95;;;18.10;99.90;;;;;;5088569;28;20202;-84
2023/05/17 03:03:26;;;;;;;6.95;1.15;;;18.20;99.90;;;;;;5090192;28;20252;-85
2023/05/17 03:06:02;;;;;;;5.38;0.95;;;18.30;99.90;;;;;;5089911;28;20219;-85
2023/05/17 03:08:33;;;;;;;3.80;1.10;;;18.40;99.90;;;;;;5087980;28;20199;-84
2023/05/17 03:11:04;;;;;;;6.93;1.20;;;18.40;99.90;;;;;;5088120;28;20210;-83
2023/05/17 03:13:38;;;;;;;5.35;1.05;;;18.50;99.90;;;;;;5088255;28;20650;-86
2023/05/17 03:16:09;;;;;;;3.53;0.90;;;18.50;99.90;;;;;;5090577;28;20543;-86
2023/05/17 03:18:40;;;;;;;5.82;1.20;;;18.60;99.90;;;;;;5102114;28;20201;-85
2023/05/17 03:21:11;;;;;;;4.95;1.10;;;18.50;99.90;;;;;;5106260;28;20190;-86
2023/05/17 03:23:42;;;;;;;5.55;1.30;;;18.50;99.90;;;;;;5107837;28;20198;-86
2023/05/17 03:26:13;;;;;;;4.97;1.35;;;18.30;99.90;;;;;;5097298;28;20245;-85
2023/05/17 03:28:47;;;;;;;6.07;1.10;;;18.20;99.90;;;;;;5086719;28;20188;-85
2023/05/17 03:31:18;;;;;;;7.03;1.02;;;18.00;99.90;;;;;;5080352;28;20199;-85
2023/05/17 03:33:49;;;;;;;5.45;1.15;;;17.90;99.90;;;;;;5083324;28;20539;-85
2023/05/17 03:36:20;;;;;;;5.50;1.08;;;17.90;99.90;;;;;;5081719;28;20241;-86
2023/05/17 03:38:51;;;;;;;3.92;1.00;;;17.90;99.90;;;;;;5055021;28;20197;-85
2023/05/17 03:41:23;;;;;;;3.83;0.80;;;17.90;99.90;;;;;;5054622;28;20215;-86
2023/05/17 03:43:57;;;;;;;5.38;0.90;;;17.90;99.90;;;;;;5061203;28;20196;-85
2023/05/17 03:46:28;;;;;;;6.80;1.38;;;17.90;99.90;;;;;;5074050;28;20216;-85
2023/05/17 03:49:00;;;;;;;3.75;1.05;;;18.00;99.90;;;;;;5073468;28;20196;-85
2023/05/17 03:51:31;;;;;;;5.55;1.17;;;18.00;99.90;;;;;;5075657;28;20583;-85
2023/05/17 03:54:03;;;;;;;5.15;0.95;;;18.20;99.90;;;;;;5074366;28;20204;-85
2023/05/17 03:56:34;;;;;;;5.82;1.00;;;18.20;99.90;;;;;;5074580;28;20211;-86
2023/05/17 03:59:07;;;;;;;4.50;1.08;;;18.20;99.90;;;;;;5074799;28;20196;-86
2023/05/17 04:01:38;;;;;;;5.38;0.98;;;18.10;99.90;;;;;;5074869;28;20223;-85
2023/05/17 04:04:09;;;;;;;7.05;1.05;;;18.20;99.90;;;;;;5074886;28;20202;-85
2023/05/17 04:06:41;;;;;;;4.80;0.95;;;18.20;99.90;;;;;;5074763;28;20231;-85
2023/05/17 04:09:12;;;;;;;2.72;0.65;;;18.20;99.90;;;;;;5074118;28;20196;-86
2023/05/17 04:11:43;;;;;;;4.88;0.90;;;18.10;99.90;;;;;;5073142;28;20204;-85
2023/05/17 04:14:17;;;;;;;7.05;1.17;;;18.20;99.90;;;;;;5057455;28;20197;-85
2023/05/17 04:16:48;;;;;;;6.95;0.90;;;18.00;99.90;;;;;;5054240;28;20201;-85
2023/05/17 04:19:19;;;;;;;5.80;1.05;;;18.10;99.90;;;;;;5071980;28;20279;-85
2023/05/17 04:21:50;;;;;;;7.65;1.27;;;18.10;99.90;;;;;;5074044;28;20199;-85
2023/05/17 04:24:21;;;;;;;7.75;1.45;;;18.10;99.90;;;;;;5073845;28;20677;-84
2023/05/17 04:26:53;;;;;;;3.88;1.17;;;18.10;99.90;;;;;;5073716;28;20239;-84
2023/05/17 04:29:26;;;;;;;5.82;1.17;;;18.00;99.90;;;;;;5074224;28;20218;-86
2023/05/17 04:31:59;;;;;;;7.03;1.10;;;18.10;99.90;;;;;;5076388;28;20192;-87
2023/05/17 04:34:30;;;;;;;5.47;1.10;;;18.20;99.90;;;;;;5075554;28;20208;-85
2023/05/17 04:37:02;;;;;;;6.30;1.27;;;18.20;99.90;;;;;;5075092;28;20216;-85
2023/05/17 04:39:33;;;;;;;5.75;1.10;;;18.20;99.90;;;;;;5076466;28;20539;-85
2023/05/17 04:42:04;;;;;;;6.60;0.80;;;18.20;99.90;;;;;;5074674;28;20200;-85
2023/05/17 04:44:39;;;;;;;6.18;1.13;;;18.10;99.90;;;;;;5075457;28;20199;-85
2023/05/17 04:47:10;;;;;;;4.50;1.00;;;18.10;99.90;;;;;;5075755;28;20215;-85
2023/05/17 04:49:44;;;;;;;3.58;1.00;;;18.20;99.90;;;;;;5077913;28;20192;-85
2023/05/17 04:52:15;;;;;;;3.20;1.00;;;18.20;99.90;;;;;;5076779;28;20225;-86
2023/05/17 04:54:48;;;;;;;4.85;1.02;;;18.30;99.90;;;;;;5074375;28;20199;-86
2023/05/17 04:57:20;;;;;;;5.10;1.00;;;18.20;99.90;;;;;;5074476;28;20196;-85
2023/05/17 04:59:53;;;;;;;5.20;0.95;;;18.20;99.90;;;;;;5076245;28;20235;-84
2023/05/17 05:02:24;;;;;;;3.25;0.85;;;18.20;99.90;;;;;;5076238;28;20206;-84
2023/05/17 05:04:55;;;;;;;3.65;1.00;;;18.10;99.90;;;;;;5075861;28;20191;-86
2023/05/17 05:07:27;;;;;;;4.55;1.10;;;18.00;99.90;;;;;;5075294;28;20223;-84
2023/05/17 05:10:00;;;;;;;5.15;1.13;;;17.90;99.90;;;;;;5078035;28;20203;-84
2023/05/17 05:12:32;;;;;;;4.05;0.93;;;18.00;99.90;;;;;;5078664;28;20204;-85
2023/05/17 05:15:09;;;;;;;3.45;0.75;;;17.80;99.90;;;;;;5080185;28;20603;-84
2023/05/17 05:17:41;;;;;;;3.03;0.85;;;17.80;99.90;;;;;;5076721;28;20203;-85
2023/05/17 05:20:13;;;;;;;3.30;0.80;;;17.70;99.90;;;;;;5077387;28;20556;-85
2023/05/17 05:22:44;;;;;;;6.38;1.00;;;17.70;99.90;;;;;;5076092;28;20210;-85
2023/05/17 05:25:16;;;;;;;4.25;0.90;;;17.60;99.90;;;;;;5075304;28;20203;-85
2023/05/17 05:27:47;;;;;;;4.80;1.00;;;17.70;99.90;;;;;;5076396;28;20220;-86
2023/05/17 05:30:23;;;;;;;7.47;1.23;;;17.70;99.90;;;;;;5077115;28;20196;-86
2023/05/17 05:32:56;;;;;;;4.35;1.02;;;17.80;99.90;;;;;;5077120;28;20658;-87
2023/05/17 05:35:28;;;;;;;7.00;0.98;;;17.60;99.90;;;;;;5075675;28;20275;-85
2023/05/17 05:38:00;;;;;;;5.90;0.90;;;17.70;99.90;;;;;;5076437;28;20422;-85
2023/05/17 05:40:31;;;;;;;6.78;1.23;;;17.80;99.90;;;;;;5074487;28;20196;-85
2023/05/17 05:43:03;;;;;;;3.22;0.90;;;17.70;99.90;;;;;;5074028;28;20204;-85
2023/05/17 05:45:36;;;;;;;7.15;1.20;;;17.70;99.90;;;;;;5073809;28;20207;-85
2023/05/17 05:48:07;;;;;;;7.25;1.00;;;17.70;99.90;;;;;;5073804;28;20216;-85
2023/05/17 05:50:38;;;;;;;5.13;1.10;;;17.50;99.90;;;;;;5073498;28;20599;-86
2023/05/17 05:53:10;;;;;;;5.72;1.40;;;17.50;99.90;;;;;;5073734;28;20200;-85
2023/05/17 05:55:44;;;;;;;5.50;0.95;;;17.40;99.90;;;;;;5074349;28;20195;-86
2023/05/17 05:58:16;;;;;;;4.65;0.95;;;17.40;99.90;;;;;;5073587;28;20578;-86
2023/05/17 06:00:50;;;;;;;4.93;1.08;;;17.50;99.90;;;;;;5074227;28;20210;-85
2023/05/17 06:03:21;;;;;;;6.25;1.38;;;17.30;99.90;;;;;;5073193;28;20200;-84
2023/05/17 06:05:53;;;;;;;4.50;0.90;;;17.30;99.90;;;;;;5072116;28;20192;-85
2023/05/17 06:08:24;;;;;;;3.10;0.63;;;17.30;99.90;;;;;;5071684;28;20307;-85
2023/05/17 06:10:55;;;;;;;4.93;1.00;;;17.50;99.90;;;;;;5072329;28;20666;-85
2023/05/17 06:13:27;;;;;;;2.72;0.80;;;17.70;99.90;;;;;;5072111;28;20195;-84
2023/05/17 06:16:00;;;;;;;4.63;1.23;;;17.80;99.90;;;;;;5075451;28;20207;-85
2023/05/17 06:18:33;;;;;;;2.67;0.52;;;17.90;99.90;;;;;;5053779;28;20612;-85
2023/05/17 06:21:04;;;;;;;3.50;0.82;;;17.90;99.90;;;;;;5052324;28;20583;-84
2023/05/17 06:23:35;;;;;;;3.67;0.63;;;17.70;99.90;;;;;;5053126;28;20215;-86
2023/05/17 06:26:09;;;;;;;2.63;0.60;;;17.60;99.90;;;;;;5072660;28;20239;-86
2023/05/17 06:28:40;;;;;;;7.40;1.10;;;17.40;99.90;;;;;;5073993;28;20273;-86
2023/05/17 06:31:13;;;;;;;8.10;1.23;;;17.20;99.90;;;;;;5073920;28;20203;-86
2023/05/17 06:33:45;;;;;;;6.00;1.10;;;17.20;99.90;;;;;;5074249;28;20255;-86
2023/05/17 06:36:18;;;;;;;3.25;1.00;;;17.00;99.90;;;;;;5073122;28;20678;-85
2023/05/17 06:38:49;;;;;;;4.50;0.77;;;16.90;99.90;;;;;;5072406;28;20539;-85
2023/05/17 06:41:21;;;;;;;2.10;0.50;;;16.80;99.90;;;;;;5072598;28;20188;-85
2023/05/17 06:43:52;;;;;;;5.05;0.90;;;16.70;99.90;;;;;;5073127;28;20195;-84
2023/05/17 06:46:27;;;;;;;5.13;0.80;;;16.60;99.90;;;;;;5072197;28;20200;-84
2023/05/17 06:48:59;;;;;;;2.85;0.70;;;16.70;99.90;;;;;;5072732;28;20600;-85
2023/05/17 06:51:30;;;;;;;3.25;0.60;;;16.70;99.90;;;;;;5072892;28;20205;-85
2023/05/17 06:54:01;;;;;;;6.13;1.38;;;16.70;99.90;;;;;;5073128;28;20203;-85
2023/05/17 06:56:32;;;;;;;3.65;0.93;;;16.70;99.90;;;;;;5077134;28;20196;-85
2023/05/17 06:59:04;;;;;;;5.30;1.08;;;16.60;99.90;;;;;;5073354;28;20254;-84
2023/05/17 07:01:39;;;;;;;6.28;1.60;;;16.60;99.90;;;;;;5071833;28;20200;-85
2023/05/17 07:04:11;;;;;;;4.60;1.23;;;16.50;99.90;;;;;;5071428;28;20183;-85
2023/05/17 07:06:43;;;;;;;6.07;1.33;;;16.40;99.90;;;;;;5071355;28;20290;-86
2023/05/17 07:09:15;;;;;;;6.18;0.80;;;16.30;99.90;;;;;;5071239;28;20780;-86
2023/05/17 07:11:46;;;;;;;6.97;1.35;;;16.30;99.90;;;;;;5071521;28;20200;-85
2023/05/17 07:14:17;;;;;;;4.75;1.20;;;16.30;99.90;;;;;;5074089;28;20200;-85
2023/05/17 07:16:53;;;;;;;6.90;1.85;;;16.20;99.90;;;;;;5057501;28;20204;-85
2023/05/17 07:19:25;;;;;;;6.85;1.42;;;16.20;99.90;;;;;;5055584;28;20196;-86
2023/05/17 07:21:56;;;;;;;8.55;1.92;;;16.10;99.90;;;;;;5055454;28;20682;-86
2023/05/17 07:24:27;;;;;;;4.72;1.10;;;16.10;99.90;;;;;;5072170;28;20192;-87
2023/05/17 07:26:59;;;;;;;8.90;2.33;;;16.10;99.90;;;;;;5074990;28;20223;-85
2023/05/17 07:29:30;;;;;;;6.20;1.05;;;15.90;99.90;;;;;;5079443;28;20191;-88
2023/05/17 07:32:05;;;;;;;4.68;0.90;;;16.00;99.90;;;;;;5095892;28;20255;-87
2023/05/17 07:34:36;;;;;;;5.35;0.90;;;16.10;99.90;;;;;;5096880;28;20183;-87
2023/05/17 07:37:09;;;;;;;3.05;0.68;;;16.20;99.90;;;;;;5095261;28;20212;-87
2023/05/17 07:39:40;;;;;;;4.68;1.08;;;16.10;99.90;;;;;;5092206;28;20263;-87
2023/05/17 07:42:11;;;;;;;4.93;1.00;;;16.20;99.90;;;;;;5089844;28;20214;-85
2023/05/17 07:44:42;;;;;;;7.13;2.58;;;16.10;99.90;;;;;;5089714;28;20279;-88
2023/05/17 07:47:20;;;;;;;4.13;1.35;;;16.10;99.90;;;;;;5078291;28;20200;-87
2023/05/17 07:49:51;;;;;;;6.72;2.05;;;16.10;99.90;;;;;;5078441;28;20204;-86
2023/05/17 07:52:22;;;;;;;7.32;1.48;;;16.10;99.90;;;;;;5076896;28;20226;-86
2023/05/17 07:54:54;;;;;;;4.80;1.73;;;16.10;99.90;;;;;;5077247;28;20203;-86
2023/05/17 07:57:26;;;;;;;9.98;2.30;;;16.10;99.90;;;;;;5077089;28;20200;-87
2023/05/17 08:00:01;;;;;;;5.75;1.65;;;16.00;99.90;;;;;;5076778;28;20214;-87
2023/05/17 08:02:35;;;;;;;5.05;1.88;;;16.00;99.90;;;;;;5076692;28;20721;-87
2023/05/17 08:05:07;;;;;;;7.70;2.92;;;15.90;99.90;;;;;;5076859;28;20202;-87
2023/05/17 08:07:38;;;;;;;6.63;1.95;;;15.90;99.90;;;;;;5076678;28;20216;-87
2023/05/17 08:10:10;;;;;;;5.32;1.80;;;16.00;99.90;;;;;;5076629;28;20287;-88
2023/05/17 08:12:41;;;;;;;16.23;5.07;;;15.90;99.90;;;;;;5076730;28;20200;-88
2023/05/17 08:15:12;;;;;;;5.28;2.03;;;15.90;99.90;;;;;;5076626;28;20192;-88
2023/05/17 08:17:45;;;;;;;5.43;1.35;;;16.00;99.90;;;;;;5075549;28;20208;-88
2023/05/17 08:20:17;;;;;;;5.35;1.48;;;16.10;99.90;;;;;;5075831;28;20207;-87
2023/05/17 08:22:49;;;;;;;4.72;1.25;;;16.10;99.90;;;;;;5075467;28;20309;-86
2023/05/17 08:25:21;;;;;;;2.53;0.70;;;16.20;99.90;;;;;;5074964;28;20196;-87
2023/05/17 08:27:54;;;;;;;2.97;1.10;;;16.10;99.90;;;;;;5075024;28;20223;-87
2023/05/17 08:30:26;;;;;;;5.25;1.20;;;16.00;99.90;;;;;;5074945;28;20192;-86
2023/05/17 08:33:00;;;;;;;6.13;2.10;;;15.90;99.90;;;;;;5074458;28;20659;-86
2023/05/17 08:35:31;;;;;;;7.07;1.80;;;15.90;99.90;;;;;;5075109;28;20206;-87
2023/05/17 08:38:05;;;;;;;4.80;1.35;;;15.80;99.90;;;;;;5074263;28;20219;-87
2023/05/17 08:40:39;;;;;;;11.00;2.85;;;15.70;99.90;;;;;;5073652;28;20195;-87
2023/05/17 08:43:13;;;;;;;3.80;1.33;;;15.70;99.90;;;;;;5074151;28;20199;-87
2023/05/17 08:45:46;;;;;;;5.22;1.48;;;15.70;99.90;;;;;;5073932;28;20241;-87
2023/05/17 08:48:20;;;;;;;3.45;1.40;;;15.70;99.90;;;;;;5073731;28;20220;-88
2023/05/17 08:50:54;;;;;;;4.72;2.05;;;15.60;99.90;;;;;;5073392;28;20207;-87
2023/05/17 08:53:27;;;;;;;6.32;1.65;;;15.60;99.90;;;;;;5073377;28;20545;-87
2023/05/17 08:56:05;;;;;;;4.43;1.15;;;15.50;99.90;;;;;;5073918;28;20219;-87
2023/05/17 08:58:38;;;;;;;3.95;1.30;;;15.50;99.90;;;;;;5073353;28;20662;-87
2023/05/17 09:01:11;;;;;;;8.10;1.25;;;15.40;99.90;;;;;;5073453;28;20196;-87
2023/05/17 09:03:49;;;;;;;3.42;0.75;;;15.40;99.90;;;;;;5073852;28;20210;-87
2023/05/17 09:06:22;;;;;;;3.25;1.10;;;15.50;99.90;;;;;;5073910;28;20209;-88
2023/05/17 09:08:54;;;;;;;5.40;1.42;;;15.50;99.90;;;;;;5073445;28;20223;-87
2023/05/17 09:11:32;;;;;;;5.82;1.23;;;15.60;99.90;;;;;;5073025;28;20662;-87
2023/05/17 09:14:04;;;;;;;5.97;1.30;;;15.60;99.90;;;;;;5073358;28;20203;-88
2023/05/17 09:16:36;;;;;;;5.85;1.85;;;15.60;99.90;;;;;;5074586;28;20670;-87
2023/05/17 09:19:11;;;;;;;10.27;3.08;;;15.70;99.90;;;;;;5073014;28;20208;-87
2023/05/17 09:21:42;;;;;;;5.05;1.70;;;15.60;99.90;;;;;;5074685;28;20214;-87
2023/05/17 09:24:15;;;;;;;6.93;2.05;;;15.40;99.90;;;;;;5072971;28;20196;-87
2023/05/17 09:26:47;;;;;;;14.50;4.43;;;15.50;99.90;;;;;;5072792;28;20324;-87
2023/05/17 09:29:18;;;;;;;5.32;2.33;;;15.50;99.90;;;;;;5072954;28;20228;-88
2023/05/17 09:31:49;;;;;;;5.78;2.10;;;15.50;99.90;;;;;;5073295;28;20196;-88
2023/05/17 09:34:26;;;;;;;4.82;1.60;;;15.50;99.90;;;;;;5072623;28;20207;-87
2023/05/17 09:36:58;;;;;;;4.38;2.15;;;15.50;99.90;;;;;;5071774;28;20219;-87
2023/05/17 09:39:30;;;;;;;4.75;1.55;;;15.50;99.90;;;;;;5072859;28;20206;-88
2023/05/17 09:42:01;;;;;;;4.07;1.48;;;15.50;99.90;;;;;;5073293;28;20207;-87
2023/05/17 09:44:34;;;;;;;5.05;1.50;;;15.60;99.90;;;;;;5072878;28;20207;-86
2023/05/17 09:47:05;;;;;;;5.30;1.63;;;15.60;99.90;;;;;;5071970;28;20200;-87
2023/05/17 09:49:41;;;;;;;3.15;1.30;;;15.70;99.90;;;;;;5072084;28;20600;-87
2023/05/17 09:52:12;;;;;;;6.65;1.30;;;15.60;99.90;;;;;;5072818;28;20204;-88
2023/05/17 09:54:43;;;;;;;2.65;1.17;;;15.70;99.90;;;;;;5073795;28;20203;-85
2023/05/17 09:57:16;;;;;;;6.43;1.60;;;15.70;99.90;;;;;;5073146;28;20219;-86
2023/05/17 09:59:49;;;;;;;5.43;2.00;;;15.70;99.90;;;;;;5073480;28;20567;-87
2023/05/17 10:02:24;;;;;;;5.45;2.00;;;15.70;99.90;;;;;;5073114;28;20210;-87
2023/05/17 10:05:04;;;;;;;4.93;1.65;;;15.70;99.90;;;;;;5072479;28;20203;-87
2023/05/17 10:07:37;;;;;;;6.65;3.03;;;15.60;99.90;;;;;;5072325;28;20242;-87
2023/05/17 10:10:09;;;;;;;11.38;2.92;;;15.60;99.90;;;;;;5071952;28;20277;-86
2023/05/17 10:12:45;;;;;;;29.55;8.70;;;15.60;99.90;;;;;;5071936;28;20196;-87
2023/05/17 10:15:17;;;;;;;14.98;5.35;;;15.60;99.90;;;;;;5072701;28;20200;-88
2023/05/17 10:17:50;;;;;;;7.43;2.53;;;15.60;99.90;;;;;;5070958;28;20206;-87
2023/05/17 10:20:24;;;;;;;4.30;1.38;;;15.60;99.90;;;;;;5071979;28;20191;-86
2023/05/17 10:22:57;;;;;;;8.23;1.70;;;15.60;99.90;;;;;;5072241;28;20272;-88
2023/05/17 10:25:28;;;;;;;7.30;1.80;;;15.70;99.90;;;;;;5072488;28;20198;-87
2023/05/17 10:28:00;;;;;;;4.60;2.03;;;15.70;99.90;;;;;;5072698;28;20223;-84
2023/05/17 10:30:32;;;;;;;3.72;1.60;;;15.60;99.90;;;;;;5071602;28;20200;-87
2023/05/17 10:33:06;;;;;;;7.60;2.00;;;15.60;99.90;;;;;;5071447;28;20222;-87
2023/05/17 10:35:39;;;;;;;5.07;1.52;;;15.60;99.90;;;;;;5071427;28;20199;-88
2023/05/17 10:38:12;;;;;;;4.70;1.33;;;15.50;99.90;;;;;;5071241;28;20223;-87
2023/05/17 10:40:48;;;;;;;5.25;2.60;;;15.40;99.90;;;;;;5072839;28;20655;-87
2023/05/17 10:43:22;;;;;;;6.53;2.30;;;15.30;99.90;;;;;;5072033;28;20681;-86
2023/05/17 10:45:56;;;;;;;5.45;1.50;;;15.30;99.90;;;;;;5072404;28;20206;-87
2023/05/17 10:48:31;;;;;;;4.82;1.27;;;15.30;99.90;;;;;;5074102;28;20222;-85
2023/05/17 10:51:09;;;;;;;6.53;1.23;;;15.30;99.90;;;;;;5076097;28;20211;-88
2023/05/17 10:54:07;;;;;;;3.92;1.40;;;15.20;99.90;;;;;;5076016;28;20205;-86
2023/05/17 10:56:41;;;;;;;6.63;1.90;;;15.30;99.90;;;;;;5076713;28;20200;-87
2023/05/17 10:59:22;;;;;;;12.57;4.22;;;15.30;99.90;;;;;;5076329;28;20208;-88
2023/05/17 11:02:00;;;;;;;2.08;1.10;;;15.30;99.90;;;;;;5076111;28;20192;-86
2023/05/17 11:04:36;;;;;;;3.53;1.40;;;15.30;99.90;;;;;;5075385;28;20199;-87
2023/05/17 11:07:31;;;;;;;3.67;1.20;;;15.20;99.90;;;;;;5075692;28;20672;-87
2023/05/17 11:10:13;;;;;;;4.07;0.88;;;15.20;99.90;;;;;;5075842;28;20322;-86
2023/05/17 11:12:46;;;;;;;3.42;1.25;;;15.20;99.90;;;;;;5074991;28;20674;-86
2023/05/17 11:15:18;;;;;;;4.25;1.10;;;15.30;99.90;;;;;;5075976;28;20712;-87
2023/05/17 11:17:55;;;;;;;3.15;1.10;;;15.30;99.90;;;;;;5075631;28;20207;-88
2023/05/17 11:20:37;;;;;;;3.88;1.00;;;15.30;99.90;;;;;;5075081;28;20210;-86
2023/05/17 11:23:23;;;;;;;1.92;0.80;;;15.30;99.90;;;;;;5074734;28;20261;-87
2023/05/17 11:25:55;;;;;;;5.30;0.90;;;15.30;99.90;;;;;;5075387;28;20215;-87
2023/05/17 11:28:28;;;;;;;3.80;1.08;;;15.30;99.90;;;;;;5075650;28;20591;-88
2023/05/17 11:31:04;;;;;;;3.38;1.02;;;15.30;99.90;;;;;;5074895;28;20200;-86
2023/05/17 11:33:44;;;;;;;4.30;1.00;;;15.30;99.90;;;;;;5074493;28;20207;-86
2023/05/17 11:36:26;;;;;;;2.83;0.93;;;15.20;99.90;;;;;;5074549;28;20284;-85
2023/05/17 11:39:16;;;;;;;4.72;1.10;;;15.20;99.90;;;;;;5074141;28;20200;-87
2023/05/17 11:41:52;;;;;;;4.43;1.00;;;15.10;99.90;;;;;;5074333;28;20219;-87
2023/05/17 11:44:32;;;;;;;2.95;1.00;;;15.00;99.90;;;;;;5074269;28;20569;-87
2023/05/17 11:47:08;;;;;;;4.35;1.38;;;15.10;99.90;;;;;;5073935;28;20206;-86
2023/05/17 11:49:41;;;;;;;2.28;0.80;;;15.10;99.90;;;;;;5073701;28;20499;-85
2023/05/17 11:52:12;;;;;;;4.75;1.10;;;15.10;99.90;;;;;;5073786;28;20272;-85
2023/05/17 11:54:46;;;;;;;4.03;1.08;;;15.10;99.90;;;;;;5073841;28;20204;-86
2023/05/17 11:57:21;;;;;;;3.00;1.05;;;15.10;99.90;;;;;;5075496;28;20658;-87
2023/05/17 12:00:00;;;;;;;3.95;1.20;;;15.10;99.90;;;;;;5077908;28;20214;-86
2023/05/17 12:02:31;;;;;;;5.32;1.10;;;15.20;99.90;;;;;;5075041;28;20200;-86
2023/05/17 12:05:03;;;;;;;5.85;1.35;;;15.10;99.90;;;;;;5075188;28;20188;-86
2023/05/17 12:07:36;;;;;;;3.72;1.20;;;15.10;99.90;;;;;;5075595;28;20200;-85
2023/05/17 12:10:16;;;;;;;5.80;1.20;;;15.10;99.90;;;;;;5074802;28;20224;-84
2023/05/17 12:12:47;;;;;;;4.90;1.10;;;15.10;99.90;;;;;;5075868;28;20200;-86
2023/05/17 12:15:23;;;;;;;4.03;1.00;;;15.20;99.90;;;;;;5075646;28;20219;-87
2023/05/17 12:17:56;;;;;;;2.53;0.80;;;15.20;99.90;;;;;;5075500;28;20274;-84
2023/05/17 12:20:28;;;;;;;2.17;0.77;;;15.30;99.90;;;;;;5075155;28;20206;-86
2023/05/17 12:22:59;;;;;;;4.70;1.10;;;15.30;99.90;;;;;;5073401;28;20196;-87
2023/05/17 12:25:37;;;;;;;2.72;0.93;;;15.40;99.90;;;;;;5077484;28;20196;-87
2023/05/17 12:28:21;;;;;;;2.92;0.90;;;15.40;99.90;;;;;;5034889;28;20227;-87
2023/05/17 12:30:56;;;;;;;4.18;1.15;;;15.30;99.90;;;;;;5036332;28;20220;-86
2023/05/17 12:33:28;;;;;;;2.83;1.17;;;15.30;99.90;;;;;;5034429;28;20287;-86
2023/05/17 12:36:01;;;;;;;5.68;1.15;;;15.20;99.90;;;;;;5034336;28;20276;-87
2023/05/17 12:38:34;;;;;;;4.72;1.45;;;15.10;99.90;;;;;;5034980;28;20429;-87
2023/05/17 12:41:11;;;;;;;5.50;1.35;;;15.00;99.90;;;;;;5035274;28;20201;-87
2023/05/17 12:43:43;;;;;;;2.97;1.17;;;14.70;99.90;;;;;;5034846;28;20783;-86
2023/05/17 12:46:17;;;;;;;4.00;1.30;;;14.70;99.90;;;;;;5034216;28;20205;-85
2023/05/17 12:48:49;;;;;;;4.18;1.30;;;14.60;99.90;;;;;;5033968;28;20207;-87
2023/05/17 12:51:23;;;;;;;7.93;1.27;;;14.50;99.90;;;;;;5036320;28;20202;-87
2023/05/17 12:53:58;;;;;;;3.05;1.20;;;14.50;99.90;;;;;;5034514;28;20196;-86
2023/05/17 12:56:33;;;;;;;5.38;1.50;;;14.40;99.90;;;;;;5035079;28;20632;-86
2023/05/17 12:59:09;;;;;;;5.72;1.40;;;14.40;99.90;;;;;;5034756;28;20261;-86
2023/05/17 13:01:41;;;;;;;5.28;1.42;;;14.40;99.90;;;;;;5035255;28;20197;-85
2023/05/17 13:04:14;;;;;;;3.92;1.30;;;14.40;99.90;;;;;;5034940;28;20197;-87
2023/05/17 13:06:52;;;;;;;3.85;1.50;;;14.40;99.90;;;;;;5035636;28;20572;-86
2023/05/17 13:09:25;;;;;;;3.97;1.42;;;14.30;99.90;;;;;;5033546;28;20235;-87
2023/05/17 13:11:59;;;;;;;4.20;1.25;;;14.30;99.90;;;;;;5033818;28;20203;-87
2023/05/17 13:14:38;;;;;;;3.20;1.10;;;14.20;99.90;;;;;;5034435;28;20212;-87
2023/05/17 13:17:10;;;;;;;4.50;1.10;;;14.20;99.90;;;;;;5015568;28;20565;-86